sensor_id;sensor_type;location;lat;lon;timestamp;P1;durP1;ratioP1;P2;durP2;ratioP2
23266;SDS011;11802;53.160;8.214;2024-02-26T00:02:19;20.50;;;14.00;;
23266;SDS011;11802;53.160;8.214;2024-02-26T00:04:44;20.83;;;13.63;;
23266;SDS011;11802;53.160;8.214;2024-02-26T00:07:10;22.67;;;14.43;;
23266;SDS011;11802;53.160;8.214;2024-02-26T00:09:35;23.40;;;15.13;;
23266;SDS011;11802;53.160;8.214;2024-02-26T00:12:02;22.90;;;14.73;;
23266;SDS011;11802;53.160;8.214;2024-02-26T00:14:29;21.37;;;13.80;;
23266;SDS011;11802;53.160;8.214;2024-02-26T00:16:55;23.20;;;15.07;;
23266;SDS011;11802;53.160;8.214;2024-02-26T00:19:20;21.60;;;14.43;;
23266;SDS011;11802;53.160;8.214;2024-02-26T00:21:46;22.77;;;14.50;;
23266;SDS011;11802;53.160;8.214;2024-02-26T00:24:12;22.17;;;14.13;;
23266;SDS011;11802;53.160;8.214;2024-02-26T00:26:37;22.93;;;15.10;;
23266;SDS011;11802;53.160;8.214;2024-02-26T00:29:03;23.50;;;14.10;;
23266;SDS011;11802;53.160;8.214;2024-02-26T00:31:28;21.87;;;13.80;;
23266;SDS011;11802;53.160;8.214;2024-02-26T00:33:54;19.67;;;13.03;;
23266;SDS011;11802;53.160;8.214;2024-02-26T00:36:19;22.63;;;15.00;;
23266;SDS011;11802;53.160;8.214;2024-02-26T00:38:45;18.93;;;12.67;;
23266;SDS011;11802;53.160;8.214;2024-02-26T00:41:15;19.30;;;12.37;;
23266;SDS011;11802;53.160;8.214;2024-02-26T00:43:50;20.83;;;13.00;;
23266;SDS011;11802;53.160;8.214;2024-02-26T00:46:16;22.70;;;13.87;;
23266;SDS011;11802;53.160;8.214;2024-02-26T00:48:41;21.17;;;13.23;;
23266;SDS011;11802;53.160;8.214;2024-02-26T00:51:07;19.87;;;13.30;;
23266;SDS011;11802;53.160;8.214;2024-02-26T00:53:32;20.97;;;12.83;;
23266;SDS011;11802;53.160;8.214;2024-02-26T00:55:58;22.33;;;14.10;;
23266;SDS011;11802;53.160;8.214;2024-02-26T00:58:24;23.97;;;13.03;;
23266;SDS011;11802;53.160;8.214;2024-02-26T01:00:50;19.90;;;12.80;;
23266;SDS011;11802;53.160;8.214;2024-02-26T01:03:17;21.93;;;13.07;;
23266;SDS011;11802;53.160;8.214;2024-02-26T01:05:43;20.20;;;13.10;;
23266;SDS011;11802;53.160;8.214;2024-02-26T01:08:08;21.03;;;13.80;;
23266;SDS011;11802;53.160;8.214;2024-02-26T01:10:34;20.83;;;13.00;;
23266;SDS011;11802;53.160;8.214;2024-02-26T01:12:59;21.77;;;13.30;;
23266;SDS011;11802;53.160;8.214;2024-02-26T01:15:25;25.70;;;14.10;;
23266;SDS011;11802;53.160;8.214;2024-02-26T01:17:51;23.17;;;14.27;;
23266;SDS011;11802;53.160;8.214;2024-02-26T01:20:17;18.63;;;12.47;;
23266;SDS011;11802;53.160;8.214;2024-02-26T01:22:43;21.47;;;13.27;;
23266;SDS011;11802;53.160;8.214;2024-02-26T01:25:09;22.63;;;14.50;;
23266;SDS011;11802;53.160;8.214;2024-02-26T01:27:35;21.33;;;14.30;;
23266;SDS011;11802;53.160;8.214;2024-02-26T01:30:04;21.83;;;14.13;;
23266;SDS011;11802;53.160;8.214;2024-02-26T01:32:31;20.77;;;14.10;;
23266;SDS011;11802;53.160;8.214;2024-02-26T01:34:57;20.77;;;13.10;;
23266;SDS011;11802;53.160;8.214;2024-02-26T01:37:22;22.50;;;13.70;;
23266;SDS011;11802;53.160;8.214;2024-02-26T01:39:48;23.70;;;13.67;;
23266;SDS011;11802;53.160;8.214;2024-02-26T01:42:13;19.27;;;11.90;;
23266;SDS011;11802;53.160;8.214;2024-02-26T01:44:39;23.00;;;13.27;;
23266;SDS011;11802;53.160;8.214;2024-02-26T01:47:10;24.73;;;14.57;;
23266;SDS011;11802;53.160;8.214;2024-02-26T01:49:37;24.37;;;14.03;;
23266;SDS011;11802;53.160;8.214;2024-02-26T01:52:04;25.27;;;14.63;;
23266;SDS011;11802;53.160;8.214;2024-02-26T01:54:31;23.53;;;13.37;;
23266;SDS011;11802;53.160;8.214;2024-02-26T01:57:00;24.60;;;14.13;;
23266;SDS011;11802;53.160;8.214;2024-02-26T01:59:26;23.83;;;14.30;;
23266;SDS011;11802;53.160;8.214;2024-02-26T02:01:54;23.93;;;14.17;;
23266;SDS011;11802;53.160;8.214;2024-02-26T02:04:22;23.70;;;14.23;;
23266;SDS011;11802;53.160;8.214;2024-02-26T02:06:49;22.17;;;13.77;;
23266;SDS011;11802;53.160;8.214;2024-02-26T02:09:15;23.23;;;13.70;;
23266;SDS011;11802;53.160;8.214;2024-02-26T02:11:41;22.20;;;13.83;;
23266;SDS011;11802;53.160;8.214;2024-02-26T02:14:07;23.20;;;14.03;;
23266;SDS011;11802;53.160;8.214;2024-02-26T02:16:32;23.60;;;14.03;;
23266;SDS011;11802;53.160;8.214;2024-02-26T02:18:58;24.23;;;13.97;;
23266;SDS011;11802;53.160;8.214;2024-02-26T02:21:24;23.20;;;13.40;;
23266;SDS011;11802;53.160;8.214;2024-02-26T02:23:49;22.17;;;13.33;;
23266;SDS011;11802;53.160;8.214;2024-02-26T02:26:15;23.70;;;14.23;;
23266;SDS011;11802;53.160;8.214;2024-02-26T02:28:41;24.57;;;14.60;;
23266;SDS011;11802;53.160;8.214;2024-02-26T02:31:07;20.87;;;12.70;;
23266;SDS011;11802;53.160;8.214;2024-02-26T02:33:33;23.87;;;14.13;;
23266;SDS011;11802;53.160;8.214;2024-02-26T02:35:59;23.43;;;14.17;;
23266;SDS011;11802;53.160;8.214;2024-02-26T02:38:25;23.83;;;14.27;;
23266;SDS011;11802;53.160;8.214;2024-02-26T02:40:51;27.37;;;14.47;;
23266;SDS011;11802;53.160;8.214;2024-02-26T02:43:17;20.77;;;13.80;;
23266;SDS011;11802;53.160;8.214;2024-02-26T02:45:43;24.17;;;15.27;;
23266;SDS011;11802;53.160;8.214;2024-02-26T02:48:08;24.63;;;14.87;;
23266;SDS011;11802;53.160;8.214;2024-02-26T02:50:34;21.37;;;14.10;;
23266;SDS011;11802;53.160;8.214;2024-02-26T02:52:59;25.53;;;15.30;;
23266;SDS011;11802;53.160;8.214;2024-02-26T02:55:25;23.27;;;14.93;;
23266;SDS011;11802;53.160;8.214;2024-02-26T02:57:52;25.40;;;15.60;;
23266;SDS011;11802;53.160;8.214;2024-02-26T03:00:17;25.23;;;15.03;;
23266;SDS011;11802;53.160;8.214;2024-02-26T03:02:43;26.13;;;15.40;;
23266;SDS011;11802;53.160;8.214;2024-02-26T03:05:10;24.70;;;14.63;;
23266;SDS011;11802;53.160;8.214;2024-02-26T03:07:35;25.50;;;13.87;;
23266;SDS011;11802;53.160;8.214;2024-02-26T03:10:01;23.53;;;13.60;;
23266;SDS011;11802;53.160;8.214;2024-02-26T03:12:26;23.00;;;14.40;;
23266;SDS011;11802;53.160;8.214;2024-02-26T03:14:53;25.20;;;14.63;;
23266;SDS011;11802;53.160;8.214;2024-02-26T03:17:19;26.03;;;14.67;;
23266;SDS011;11802;53.160;8.214;2024-02-26T03:19:45;26.03;;;14.53;;
23266;SDS011;11802;53.160;8.214;2024-02-26T03:22:12;27.60;;;15.10;;
23266;SDS011;11802;53.160;8.214;2024-02-26T03:24:38;24.53;;;14.63;;
23266;SDS011;11802;53.160;8.214;2024-02-26T03:27:04;27.50;;;15.33;;
23266;SDS011;11802;53.160;8.214;2024-02-26T03:29:34;27.07;;;14.10;;
23266;SDS011;11802;53.160;8.214;2024-02-26T03:32:00;27.70;;;15.03;;
23266;SDS011;11802;53.160;8.214;2024-02-26T03:34:25;28.47;;;15.23;;
23266;SDS011;11802;53.160;8.214;2024-02-26T03:36:52;25.40;;;14.47;;
23266;SDS011;11802;53.160;8.214;2024-02-26T03:39:17;27.43;;;15.03;;
23266;SDS011;11802;53.160;8.214;2024-02-26T03:41:43;26.67;;;14.10;;
23266;SDS011;11802;53.160;8.214;2024-02-26T03:44:08;26.27;;;13.87;;
23266;SDS011;11802;53.160;8.214;2024-02-26T03:46:34;23.20;;;13.50;;
23266;SDS011;11802;53.160;8.214;2024-02-26T03:49:00;26.47;;;14.70;;
23266;SDS011;11802;53.160;8.214;2024-02-26T03:51:25;31.37;;;15.90;;
23266;SDS011;11802;53.160;8.214;2024-02-26T03:53:53;30.50;;;16.40;;
23266;SDS011;11802;53.160;8.214;2024-02-26T03:56:18;33.33;;;16.30;;
23266;SDS011;11802;53.160;8.214;2024-02-26T03:58:45;32.93;;;17.00;;
23266;SDS011;11802;53.160;8.214;2024-02-26T04:01:11;32.40;;;16.53;;
23266;SDS011;11802;53.160;8.214;2024-02-26T04:03:36;34.27;;;17.87;;
23266;SDS011;11802;53.160;8.214;2024-02-26T04:06:02;33.47;;;18.30;;
23266;SDS011;11802;53.160;8.214;2024-02-26T04:08:28;37.53;;;18.23;;
23266;SDS011;11802;53.160;8.214;2024-02-26T04:10:54;37.47;;;19.30;;
23266;SDS011;11802;53.160;8.214;2024-02-26T04:13:19;41.43;;;19.57;;
23266;SDS011;11802;53.160;8.214;2024-02-26T04:15:45;41.20;;;20.77;;
23266;SDS011;11802;53.160;8.214;2024-02-26T04:18:11;40.63;;;20.00;;
23266;SDS011;11802;53.160;8.214;2024-02-26T04:20:37;44.30;;;21.60;;
23266;SDS011;11802;53.160;8.214;2024-02-26T04:23:03;46.80;;;21.67;;
23266;SDS011;11802;53.160;8.214;2024-02-26T04:25:28;41.57;;;21.53;;
23266;SDS011;11802;53.160;8.214;2024-02-26T04:27:54;44.43;;;21.10;;
23266;SDS011;11802;53.160;8.214;2024-02-26T04:30:20;43.40;;;21.77;;
23266;SDS011;11802;53.160;8.214;2024-02-26T04:32:45;47.40;;;23.87;;
23266;SDS011;11802;53.160;8.214;2024-02-26T04:35:11;47.47;;;21.83;;
23266;SDS011;11802;53.160;8.214;2024-02-26T04:37:36;43.10;;;22.13;;
23266;SDS011;11802;53.160;8.214;2024-02-26T04:40:03;48.77;;;22.50;;
23266;SDS011;11802;53.160;8.214;2024-02-26T04:42:29;40.93;;;21.83;;
23266;SDS011;11802;53.160;8.214;2024-02-26T04:44:55;44.40;;;22.13;;
23266;SDS011;11802;53.160;8.214;2024-02-26T04:47:20;41.23;;;21.33;;
23266;SDS011;11802;53.160;8.214;2024-02-26T04:49:47;43.30;;;21.00;;
23266;SDS011;11802;53.160;8.214;2024-02-26T04:52:14;43.37;;;20.33;;
23266;SDS011;11802;53.160;8.214;2024-02-26T04:54:40;40.13;;;19.93;;
23266;SDS011;11802;53.160;8.214;2024-02-26T04:57:05;41.27;;;21.50;;
23266;SDS011;11802;53.160;8.214;2024-02-26T04:59:31;38.20;;;19.73;;
23266;SDS011;11802;53.160;8.214;2024-02-26T05:01:56;40.53;;;20.27;;
23266;SDS011;11802;53.160;8.214;2024-02-26T05:04:22;34.33;;;18.27;;
23266;SDS011;11802;53.160;8.214;2024-02-26T05:06:47;34.63;;;18.40;;
23266;SDS011;11802;53.160;8.214;2024-02-26T05:09:13;31.70;;;18.77;;
23266;SDS011;11802;53.160;8.214;2024-02-26T05:11:39;35.33;;;18.80;;
23266;SDS011;11802;53.160;8.214;2024-02-26T05:14:04;32.57;;;16.37;;
23266;SDS011;11802;53.160;8.214;2024-02-26T05:16:30;33.13;;;16.90;;
23266;SDS011;11802;53.160;8.214;2024-02-26T05:18:56;35.47;;;17.70;;
23266;SDS011;11802;53.160;8.214;2024-02-26T05:21:22;34.03;;;17.47;;
23266;SDS011;11802;53.160;8.214;2024-02-26T05:23:47;31.17;;;16.40;;
23266;SDS011;11802;53.160;8.214;2024-02-26T05:26:19;33.13;;;17.17;;
23266;SDS011;11802;53.160;8.214;2024-02-26T05:28:45;30.87;;;15.97;;
23266;SDS011;11802;53.160;8.214;2024-02-26T05:31:12;30.43;;;17.30;;
23266;SDS011;11802;53.160;8.214;2024-02-26T05:33:38;30.30;;;16.17;;
23266;SDS011;11802;53.160;8.214;2024-02-26T05:36:04;26.13;;;16.60;;
23266;SDS011;11802;53.160;8.214;2024-02-26T05:38:30;29.50;;;15.87;;
23266;SDS011;11802;53.160;8.214;2024-02-26T05:41:02;29.23;;;16.23;;
23266;SDS011;11802;53.160;8.214;2024-02-26T05:43:33;31.10;;;16.87;;
23266;SDS011;11802;53.160;8.214;2024-02-26T05:45:58;28.30;;;15.87;;
23266;SDS011;11802;53.160;8.214;2024-02-26T05:48:24;31.80;;;16.93;;
23266;SDS011;11802;53.160;8.214;2024-02-26T05:50:49;29.27;;;15.57;;
23266;SDS011;11802;53.160;8.214;2024-02-26T05:53:15;30.17;;;17.13;;
23266;SDS011;11802;53.160;8.214;2024-02-26T05:55:41;31.93;;;16.93;;
23266;SDS011;11802;53.160;8.214;2024-02-26T05:58:06;33.43;;;17.70;;
23266;SDS011;11802;53.160;8.214;2024-02-26T06:00:32;32.13;;;17.07;;
23266;SDS011;11802;53.160;8.214;2024-02-26T06:02:57;36.00;;;17.13;;
23266;SDS011;11802;53.160;8.214;2024-02-26T06:05:23;34.97;;;16.63;;
23266;SDS011;11802;53.160;8.214;2024-02-26T06:07:48;35.00;;;17.53;;
23266;SDS011;11802;53.160;8.214;2024-02-26T06:10:14;36.07;;;17.77;;
23266;SDS011;11802;53.160;8.214;2024-02-26T06:12:40;35.93;;;18.10;;
23266;SDS011;11802;53.160;8.214;2024-02-26T06:15:06;33.87;;;17.73;;
23266;SDS011;11802;53.160;8.214;2024-02-26T06:17:32;29.60;;;16.03;;
23266;SDS011;11802;53.160;8.214;2024-02-26T06:19:58;36.27;;;17.40;;
23266;SDS011;11802;53.160;8.214;2024-02-26T06:22:24;30.30;;;15.80;;
23266;SDS011;11802;53.160;8.214;2024-02-26T06:24:50;28.63;;;16.67;;
23266;SDS011;11802;53.160;8.214;2024-02-26T06:27:15;27.57;;;16.33;;
23266;SDS011;11802;53.160;8.214;2024-02-26T06:29:41;30.23;;;17.63;;
23266;SDS011;11802;53.160;8.214;2024-02-26T06:32:07;28.50;;;16.93;;
23266;SDS011;11802;53.160;8.214;2024-02-26T06:34:32;25.20;;;16.77;;
23266;SDS011;11802;53.160;8.214;2024-02-26T06:36:58;26.70;;;17.03;;
23266;SDS011;11802;53.160;8.214;2024-02-26T06:39:23;29.93;;;17.17;;
23266;SDS011;11802;53.160;8.214;2024-02-26T06:41:49;26.50;;;16.07;;
23266;SDS011;11802;53.160;8.214;2024-02-26T06:44:14;29.00;;;17.07;;
23266;SDS011;11802;53.160;8.214;2024-02-26T06:46:40;27.80;;;17.20;;
23266;SDS011;11802;53.160;8.214;2024-02-26T06:49:06;27.33;;;15.90;;
23266;SDS011;11802;53.160;8.214;2024-02-26T06:51:31;27.23;;;16.83;;
23266;SDS011;11802;53.160;8.214;2024-02-26T06:53:57;29.80;;;17.07;;
23266;SDS011;11802;53.160;8.214;2024-02-26T06:56:23;27.10;;;15.63;;
23266;SDS011;11802;53.160;8.214;2024-02-26T06:58:49;26.87;;;16.00;;
23266;SDS011;11802;53.160;8.214;2024-02-26T07:01:47;21.20;;;14.20;;
23266;SDS011;11802;53.160;8.214;2024-02-26T07:04:22;22.90;;;14.50;;
23266;SDS011;11802;53.160;8.214;2024-02-26T07:06:49;21.33;;;13.50;;
23266;SDS011;11802;53.160;8.214;2024-02-26T07:09:15;22.60;;;13.33;;
23266;SDS011;11802;53.160;8.214;2024-02-26T07:11:40;21.80;;;14.30;;
23266;SDS011;11802;53.160;8.214;2024-02-26T07:14:08;22.60;;;13.83;;
23266;SDS011;11802;53.160;8.214;2024-02-26T07:16:35;21.07;;;13.10;;
23266;SDS011;11802;53.160;8.214;2024-02-26T07:19:00;22.23;;;13.40;;
23266;SDS011;11802;53.160;8.214;2024-02-26T07:21:26;21.23;;;13.17;;
23266;SDS011;11802;53.160;8.214;2024-02-26T07:23:52;22.50;;;11.77;;
23266;SDS011;11802;53.160;8.214;2024-02-26T07:26:17;19.40;;;12.17;;
23266;SDS011;11802;53.160;8.214;2024-02-26T07:28:44;22.03;;;12.77;;
23266;SDS011;11802;53.160;8.214;2024-02-26T07:31:10;21.50;;;12.13;;
23266;SDS011;11802;53.160;8.214;2024-02-26T07:33:35;20.77;;;12.07;;
23266;SDS011;11802;53.160;8.214;2024-02-26T07:36:01;20.47;;;12.00;;
23266;SDS011;11802;53.160;8.214;2024-02-26T07:38:27;17.10;;;11.80;;
23266;SDS011;11802;53.160;8.214;2024-02-26T07:40:53;18.43;;;11.70;;
23266;SDS011;11802;53.160;8.214;2024-02-26T07:43:18;17.33;;;11.03;;
23266;SDS011;11802;53.160;8.214;2024-02-26T07:45:44;20.07;;;11.37;;
23266;SDS011;11802;53.160;8.214;2024-02-26T07:48:09;17.23;;;10.97;;
23266;SDS011;11802;53.160;8.214;2024-02-26T07:50:35;17.60;;;10.90;;
23266;SDS011;11802;53.160;8.214;2024-02-26T07:53:01;18.07;;;10.57;;
23266;SDS011;11802;53.160;8.214;2024-02-26T07:55:26;16.53;;;10.63;;
23266;SDS011;11802;53.160;8.214;2024-02-26T07:57:52;16.50;;;10.67;;
23266;SDS011;11802;53.160;8.214;2024-02-26T08:00:18;16.60;;;9.90;;
23266;SDS011;11802;53.160;8.214;2024-02-26T08:02:43;17.30;;;9.80;;
23266;SDS011;11802;53.160;8.214;2024-02-26T08:05:09;14.43;;;9.77;;
23266;SDS011;11802;53.160;8.214;2024-02-26T08:07:35;14.30;;;8.90;;
23266;SDS011;11802;53.160;8.214;2024-02-26T08:10:00;15.97;;;9.57;;
23266;SDS011;11802;53.160;8.214;2024-02-26T08:12:26;16.67;;;9.47;;
23266;SDS011;11802;53.160;8.214;2024-02-26T08:14:52;14.23;;;9.03;;
23266;SDS011;11802;53.160;8.214;2024-02-26T08:17:17;16.03;;;9.07;;
23266;SDS011;11802;53.160;8.214;2024-02-26T08:19:43;14.63;;;9.03;;
23266;SDS011;11802;53.160;8.214;2024-02-26T08:22:08;15.67;;;9.50;;
23266;SDS011;11802;53.160;8.214;2024-02-26T08:24:40;13.90;;;9.23;;
23266;SDS011;11802;53.160;8.214;2024-02-26T08:27:09;16.60;;;9.50;;
23266;SDS011;11802;53.160;8.214;2024-02-26T08:29:35;12.80;;;8.43;;
23266;SDS011;11802;53.160;8.214;2024-02-26T08:32:01;13.47;;;8.40;;
23266;SDS011;11802;53.160;8.214;2024-02-26T08:34:27;12.37;;;8.37;;
23266;SDS011;11802;53.160;8.214;2024-02-26T08:36:52;15.63;;;8.57;;
23266;SDS011;11802;53.160;8.214;2024-02-26T08:39:18;14.80;;;8.00;;
23266;SDS011;11802;53.160;8.214;2024-02-26T08:41:44;11.97;;;8.37;;
23266;SDS011;11802;53.160;8.214;2024-02-26T08:44:10;12.60;;;8.50;;
23266;SDS011;11802;53.160;8.214;2024-02-26T08:46:36;13.87;;;8.03;;
23266;SDS011;11802;53.160;8.214;2024-02-26T08:49:01;13.40;;;8.87;;
23266;SDS011;11802;53.160;8.214;2024-02-26T08:51:27;11.80;;;7.47;;
23266;SDS011;11802;53.160;8.214;2024-02-26T08:53:52;11.30;;;7.77;;
23266;SDS011;11802;53.160;8.214;2024-02-26T08:56:19;11.97;;;7.77;;
23266;SDS011;11802;53.160;8.214;2024-02-26T08:58:46;12.60;;;8.43;;
23266;SDS011;11802;53.160;8.214;2024-02-26T09:01:13;13.37;;;8.27;;
23266;SDS011;11802;53.160;8.214;2024-02-26T09:03:39;14.07;;;8.73;;
23266;SDS011;11802;53.160;8.214;2024-02-26T09:06:05;14.93;;;9.17;;
23266;SDS011;11802;53.160;8.214;2024-02-26T09:08:32;13.03;;;8.17;;
23266;SDS011;11802;53.160;8.214;2024-02-26T09:10:58;11.90;;;8.03;;
23266;SDS011;11802;53.160;8.214;2024-02-26T09:13:23;14.30;;;8.17;;
23266;SDS011;11802;53.160;8.214;2024-02-26T09:15:49;12.87;;;7.90;;
23266;SDS011;11802;53.160;8.214;2024-02-26T09:18:15;13.20;;;8.63;;
23266;SDS011;11802;53.160;8.214;2024-02-26T09:20:41;11.73;;;8.03;;
23266;SDS011;11802;53.160;8.214;2024-02-26T09:23:06;11.70;;;8.37;;
23266;SDS011;11802;53.160;8.214;2024-02-26T09:25:32;14.37;;;8.50;;
23266;SDS011;11802;53.160;8.214;2024-02-26T09:27:58;13.53;;;8.07;;
23266;SDS011;11802;53.160;8.214;2024-02-26T09:30:24;13.03;;;8.53;;
23266;SDS011;11802;53.160;8.214;2024-02-26T09:32:50;13.37;;;8.17;;
23266;SDS011;11802;53.160;8.214;2024-02-26T09:35:16;12.97;;;8.37;;
23266;SDS011;11802;53.160;8.214;2024-02-26T09:37:41;14.53;;;8.63;;
23266;SDS011;11802;53.160;8.214;2024-02-26T09:40:08;13.43;;;8.20;;
23266;SDS011;11802;53.160;8.214;2024-02-26T09:42:39;13.33;;;8.90;;
23266;SDS011;11802;53.160;8.214;2024-02-26T09:45:10;12.83;;;8.03;;
23266;SDS011;11802;53.160;8.214;2024-02-26T09:47:43;11.90;;;7.97;;
23266;SDS011;11802;53.160;8.214;2024-02-26T09:50:10;13.27;;;8.13;;
23266;SDS011;11802;53.160;8.214;2024-02-26T09:52:38;14.30;;;9.00;;
23266;SDS011;11802;53.160;8.214;2024-02-26T09:55:06;12.20;;;7.67;;
23266;SDS011;11802;53.160;8.214;2024-02-26T09:57:34;13.13;;;8.23;;
23266;SDS011;11802;53.160;8.214;2024-02-26T10:00:02;14.83;;;8.97;;
23266;SDS011;11802;53.160;8.214;2024-02-26T10:02:32;12.07;;;7.97;;
23266;SDS011;11802;53.160;8.214;2024-02-26T10:04:59;14.17;;;8.57;;
23266;SDS011;11802;53.160;8.214;2024-02-26T10:07:30;13.40;;;8.07;;
23266;SDS011;11802;53.160;8.214;2024-02-26T10:09:56;12.27;;;7.77;;
23266;SDS011;11802;53.160;8.214;2024-02-26T10:12:22;12.87;;;8.07;;
23266;SDS011;11802;53.160;8.214;2024-02-26T10:14:48;11.83;;;7.40;;
23266;SDS011;11802;53.160;8.214;2024-02-26T10:17:14;11.93;;;7.73;;
23266;SDS011;11802;53.160;8.214;2024-02-26T10:19:40;12.87;;;8.20;;
23266;SDS011;11802;53.160;8.214;2024-02-26T10:22:06;13.30;;;7.83;;
23266;SDS011;11802;53.160;8.214;2024-02-26T10:27:51;11.40;;;7.00;;
23266;SDS011;11802;53.160;8.214;2024-02-26T10:30:18;11.67;;;7.00;;
23266;SDS011;11802;53.160;8.214;2024-02-26T10:32:58;10.23;;;6.60;;
23266;SDS011;11802;53.160;8.214;2024-02-26T10:35:27;10.23;;;6.77;;
23266;SDS011;11802;53.160;8.214;2024-02-26T10:37:53;11.33;;;7.00;;
23266;SDS011;11802;53.160;8.214;2024-02-26T10:40:19;10.90;;;7.13;;
23266;SDS011;11802;53.160;8.214;2024-02-26T10:42:45;13.93;;;8.10;;
23266;SDS011;11802;53.160;8.214;2024-02-26T10:45:11;11.23;;;6.77;;
23266;SDS011;11802;53.160;8.214;2024-02-26T10:47:47;12.17;;;7.00;;
23266;SDS011;11802;53.160;8.214;2024-02-26T10:50:13;12.47;;;7.33;;
23266;SDS011;11802;53.160;8.214;2024-02-26T10:52:41;10.03;;;7.10;;
23266;SDS011;11802;53.160;8.214;2024-02-26T10:55:07;11.90;;;6.90;;
23266;SDS011;11802;53.160;8.214;2024-02-26T10:57:39;11.80;;;7.67;;
23266;SDS011;11802;53.160;8.214;2024-02-26T11:00:06;10.43;;;6.70;;
23266;SDS011;11802;53.160;8.214;2024-02-26T11:02:32;11.47;;;7.23;;
23266;SDS011;11802;53.160;8.214;2024-02-26T11:05:02;11.33;;;7.00;;
23266;SDS011;11802;53.160;8.214;2024-02-26T11:07:29;11.57;;;7.20;;
23266;SDS011;11802;53.160;8.214;2024-02-26T11:09:55;11.20;;;7.33;;
23266;SDS011;11802;53.160;8.214;2024-02-26T11:12:22;11.50;;;7.33;;
23266;SDS011;11802;53.160;8.214;2024-02-26T11:14:49;11.10;;;7.23;;
23266;SDS011;11802;53.160;8.214;2024-02-26T11:19:59;11.27;;;7.30;;
23266;SDS011;11802;53.160;8.214;2024-02-26T11:22:50;10.87;;;6.93;;
23266;SDS011;11802;53.160;8.214;2024-02-26T11:25:19;11.10;;;7.30;;
23266;SDS011;11802;53.160;8.214;2024-02-26T11:27:51;12.37;;;7.43;;
23266;SDS011;11802;53.160;8.214;2024-02-26T11:30:24;11.20;;;7.40;;
23266;SDS011;11802;53.160;8.214;2024-02-26T11:32:54;10.33;;;7.00;;
23266;SDS011;11802;53.160;8.214;2024-02-26T11:35:33;12.27;;;7.43;;
23266;SDS011;11802;53.160;8.214;2024-02-26T11:38:01;12.50;;;7.53;;
23266;SDS011;11802;53.160;8.214;2024-02-26T11:40:28;12.40;;;7.67;;
23266;SDS011;11802;53.160;8.214;2024-02-26T11:42:56;11.13;;;7.53;;
23266;SDS011;11802;53.160;8.214;2024-02-26T11:48:04;11.80;;;8.07;;
23266;SDS011;11802;53.160;8.214;2024-02-26T11:50:40;13.63;;;8.40;;
23266;SDS011;11802;53.160;8.214;2024-02-26T12:02:09;11.70;;;7.93;;
23266;SDS011;11802;53.160;8.214;2024-02-26T12:04:38;12.50;;;8.47;;
23266;SDS011;11802;53.160;8.214;2024-02-26T12:07:03;12.53;;;8.37;;
23266;SDS011;11802;53.160;8.214;2024-02-26T12:12:52;13.33;;;7.63;;
23266;SDS011;11802;53.160;8.214;2024-02-26T12:15:41;12.53;;;8.13;;
23266;SDS011;11802;53.160;8.214;2024-02-26T12:18:19;14.53;;;8.27;;
23266;SDS011;11802;53.160;8.214;2024-02-26T12:20:46;14.00;;;8.77;;
23266;SDS011;11802;53.160;8.214;2024-02-26T12:23:37;12.20;;;8.30;;
23266;SDS011;11802;53.160;8.214;2024-02-26T12:26:03;12.63;;;8.13;;
23266;SDS011;11802;53.160;8.214;2024-02-26T12:28:29;12.43;;;8.17;;
23266;SDS011;11802;53.160;8.214;2024-02-26T12:30:55;12.47;;;7.90;;
23266;SDS011;11802;53.160;8.214;2024-02-26T12:33:24;13.17;;;8.63;;
23266;SDS011;11802;53.160;8.214;2024-02-26T12:35:51;13.70;;;8.40;;
23266;SDS011;11802;53.160;8.214;2024-02-26T12:38:17;12.43;;;8.50;;
23266;SDS011;11802;53.160;8.214;2024-02-26T12:40:42;11.93;;;8.30;;
23266;SDS011;11802;53.160;8.214;2024-02-26T12:43:09;13.67;;;8.77;;
23266;SDS011;11802;53.160;8.214;2024-02-26T12:45:42;16.27;;;9.13;;
23266;SDS011;11802;53.160;8.214;2024-02-26T12:48:12;13.50;;;8.70;;
23266;SDS011;11802;53.160;8.214;2024-02-26T12:50:38;12.27;;;8.23;;
23266;SDS011;11802;53.160;8.214;2024-02-26T12:53:04;12.97;;;8.47;;
23266;SDS011;11802;53.160;8.214;2024-02-26T12:55:31;12.13;;;8.30;;
23266;SDS011;11802;53.160;8.214;2024-02-26T12:57:59;13.33;;;8.83;;
23266;SDS011;11802;53.160;8.214;2024-02-26T13:00:26;12.63;;;8.67;;
23266;SDS011;11802;53.160;8.214;2024-02-26T13:02:53;14.73;;;8.27;;
23266;SDS011;11802;53.160;8.214;2024-02-26T13:05:20;13.60;;;8.40;;
23266;SDS011;11802;53.160;8.214;2024-02-26T13:07:47;12.87;;;8.23;;
23266;SDS011;11802;53.160;8.214;2024-02-26T13:10:13;13.73;;;9.57;;
23266;SDS011;11802;53.160;8.214;2024-02-26T13:12:43;13.97;;;8.77;;
23266;SDS011;11802;53.160;8.214;2024-02-26T13:15:13;14.30;;;9.10;;
23266;SDS011;11802;53.160;8.214;2024-02-26T13:17:41;16.27;;;9.13;;
23266;SDS011;11802;53.160;8.214;2024-02-26T13:20:08;13.90;;;8.97;;
23266;SDS011;11802;53.160;8.214;2024-02-26T13:22:35;14.93;;;9.90;;
23266;SDS011;11802;53.160;8.214;2024-02-26T13:25:01;13.73;;;8.90;;
23266;SDS011;11802;53.160;8.214;2024-02-26T13:27:29;13.07;;;8.97;;
23266;SDS011;11802;53.160;8.214;2024-02-26T13:30:05;14.90;;;9.90;;
23266;SDS011;11802;53.160;8.214;2024-02-26T13:32:35;15.50;;;9.73;;
23266;SDS011;11802;53.160;8.214;2024-02-26T13:35:09;16.33;;;10.23;;
23266;SDS011;11802;53.160;8.214;2024-02-26T13:37:38;16.33;;;9.80;;
23266;SDS011;11802;53.160;8.214;2024-02-26T13:40:08;15.30;;;10.00;;
23266;SDS011;11802;53.160;8.214;2024-02-26T13:42:35;16.33;;;10.63;;
23266;SDS011;11802;53.160;8.214;2024-02-26T13:45:06;14.43;;;9.70;;
23266;SDS011;11802;53.160;8.214;2024-02-26T13:47:47;16.00;;;10.93;;
23266;SDS011;11802;53.160;8.214;2024-02-26T13:50:22;16.43;;;10.33;;
23266;SDS011;11802;53.160;8.214;2024-02-26T13:52:50;13.93;;;9.67;;
23266;SDS011;11802;53.160;8.214;2024-02-26T13:55:18;18.10;;;11.17;;
23266;SDS011;11802;53.160;8.214;2024-02-26T13:57:45;15.97;;;10.33;;
23266;SDS011;11802;53.160;8.214;2024-02-26T14:00:11;15.97;;;10.87;;
23266;SDS011;11802;53.160;8.214;2024-02-26T14:02:38;18.13;;;11.00;;
23266;SDS011;11802;53.160;8.214;2024-02-26T14:05:03;14.47;;;10.03;;
23266;SDS011;11802;53.160;8.214;2024-02-26T14:07:29;16.00;;;10.60;;
23266;SDS011;11802;53.160;8.214;2024-02-26T14:09:58;15.17;;;10.47;;
23266;SDS011;11802;53.160;8.214;2024-02-26T14:12:23;17.03;;;10.27;;
23266;SDS011;11802;53.160;8.214;2024-02-26T14:14:49;14.90;;;10.00;;
23266;SDS011;11802;53.160;8.214;2024-02-26T14:17:15;16.50;;;10.30;;
23266;SDS011;11802;53.160;8.214;2024-02-26T14:19:41;15.93;;;10.20;;
23266;SDS011;11802;53.160;8.214;2024-02-26T14:22:12;16.70;;;10.20;;
23266;SDS011;11802;53.160;8.214;2024-02-26T14:24:38;16.70;;;10.37;;
23266;SDS011;11802;53.160;8.214;2024-02-26T14:27:04;16.63;;;11.07;;
23266;SDS011;11802;53.160;8.214;2024-02-26T14:29:34;16.83;;;10.27;;
23266;SDS011;11802;53.160;8.214;2024-02-26T14:32:00;16.47;;;10.13;;
23266;SDS011;11802;53.160;8.214;2024-02-26T14:34:26;18.13;;;11.50;;
23266;SDS011;11802;53.160;8.214;2024-02-26T14:36:52;16.60;;;10.30;;
23266;SDS011;11802;53.160;8.214;2024-02-26T14:39:17;18.70;;;10.70;;
23266;SDS011;11802;53.160;8.214;2024-02-26T14:41:43;16.10;;;10.33;;
23266;SDS011;11802;53.160;8.214;2024-02-26T14:44:09;17.00;;;10.40;;
23266;SDS011;11802;53.160;8.214;2024-02-26T14:46:35;20.90;;;11.73;;